sensor_id;sensor_type;location;lat;lon;timestamp;temperature;humidity
55026;DHT22;40925;45.666;18.994;2024-03-08T00:01:10;179.90;2252.80
55026;DHT22;40925;45.666;18.994;2024-03-08T00:03:36;179.90;2252.80
55026;DHT22;40925;45.666;18.994;2024-03-08T00:06:02;179.80;2252.80
55026;DHT22;40925;45.666;18.994;2024-03-08T00:08:28;179.70;2252.80
55026;DHT22;40925;45.666;18.994;2024-03-08T00:10:55;179.70;2252.80
55026;DHT22;40925;45.666;18.994;2024-03-08T00:13:21;179.70;2252.80
55026;DHT22;40925;45.666;18.994;2024-03-08T00:15:47;179.70;2252.80
55026;DHT22;40925;45.666;18.994;2024-03-08T00:18:12;179.60;2252.80
55026;DHT22;40925;45.666;18.994;2024-03-08T00:20:38;179.60;2252.80
55026;DHT22;40925;45.666;18.994;2024-03-08T00:23:04;179.60;2252.80
55026;DHT22;40925;45.666;18.994;2024-03-08T00:25:30;179.60;2252.80
55026;DHT22;40925;45.666;18.994;2024-03-08T00:27:56;179.60;2252.80
55026;DHT22;40925;45.666;18.994;2024-03-08T00:30:22;179.60;2252.80
55026;DHT22;40925;45.666;18.994;2024-03-08T00:32:49;179.60;2252.80
55026;DHT22;40925;45.666;18.994;2024-03-08T00:35:15;179.60;2252.80
55026;DHT22;40925;45.666;18.994;2024-03-08T00:37:41;179.60;2252.80
55026;DHT22;40925;45.666;18.994;2024-03-08T00:40:12;179.60;2252.80
55026;DHT22;40925;45.666;18.994;2024-03-08T00:42:38;179.60;2252.80
55026;DHT22;40925;45.666;18.994;2024-03-08T00:45:05;179.60;2252.80
55026;DHT22;40925;45.666;18.994;2024-03-08T00:47:31;179.50;2252.80
55026;DHT22;40925;45.666;18.994;2024-03-08T00:49:57;179.60;2252.80
55026;DHT22;40925;45.666;18.994;2024-03-08T00:52:23;179.60;2252.80
55026;DHT22;40925;45.666;18.994;2024-03-08T00:54:52;179.60;2252.80
55026;DHT22;40925;45.666;18.994;2024-03-08T00:57:18;179.60;2252.80
55026;DHT22;40925;45.666;18.994;2024-03-08T00:59:44;179.50;2252.80
55026;DHT22;40925;45.666;18.994;2024-03-08T01:02:12;179.40;2252.80
55026;DHT22;40925;45.666;18.994;2024-03-08T01:04:38;179.40;2252.80
55026;DHT22;40925;45.666;18.994;2024-03-08T01:07:04;179.60;2252.80
55026;DHT22;40925;45.666;18.994;2024-03-08T01:09:30;179.40;2252.80
55026;DHT22;40925;45.666;18.994;2024-03-08T01:11:56;179.30;2252.80
55026;DHT22;40925;45.666;18.994;2024-03-08T01:14:23;179.30;2252.80
55026;DHT22;40925;45.666;18.994;2024-03-08T01:16:49;179.30;2252.80
55026;DHT22;40925;45.666;18.994;2024-03-08T01:19:15;179.80;2252.80
55026;DHT22;40925;45.666;18.994;2024-03-08T01:21:41;179.30;2252.80
55026;DHT22;40925;45.666;18.994;2024-03-08T01:24:07;179.30;2252.80
55026;DHT22;40925;45.666;18.994;2024-03-08T01:26:33;179.30;2252.80
55026;DHT22;40925;45.666;18.994;2024-03-08T01:29:02;179.30;2252.80
55026;DHT22;40925;45.666;18.994;2024-03-08T01:31:37;179.30;2252.80
55026;DHT22;40925;45.666;18.994;2024-03-08T01:34:03;179.30;2252.80
55026;DHT22;40925;45.666;18.994;2024-03-08T01:36:31;179.30;2252.80
55026;DHT22;40925;45.666;18.994;2024-03-08T01:38:57;179.20;2252.80
55026;DHT22;40925;45.666;18.994;2024-03-08T01:41:23;154.50;2252.80
55026;DHT22;40925;45.666;18.994;2024-03-08T01:43:49;154.50;2252.80
55026;DHT22;40925;45.666;18.994;2024-03-08T01:46:19;154.50;2252.80
55026;DHT22;40925;45.666;18.994;2024-03-08T01:48:47;154.50;2252.80
55026;DHT22;40925;45.666;18.994;2024-03-08T01:51:14;154.50;2252.80
55026;DHT22;40925;45.666;18.994;2024-03-08T01:53:40;154.50;2252.80
55026;DHT22;40925;45.666;18.994;2024-03-08T01:56:08;154.50;2252.80
55026;DHT22;40925;45.666;18.994;2024-03-08T01:58:35;154.50;2252.80
55026;DHT22;40925;45.666;18.994;2024-03-08T02:01:01;179.20;2252.80
55026;DHT22;40925;45.666;18.994;2024-03-08T02:03:29;179.20;2252.80
55026;DHT22;40925;45.666;18.994;2024-03-08T02:05:57;154.50;2252.80
55026;DHT22;40925;45.666;18.994;2024-03-08T02:08:24;154.50;2252.80
55026;DHT22;40925;45.666;18.994;2024-03-08T02:10:50;154.50;2252.80
55026;DHT22;40925;45.666;18.994;2024-03-08T02:13:16;179.20;2252.80
55026;DHT22;40925;45.666;18.994;2024-03-08T02:16:00;179.20;2252.80
55026;DHT22;40925;45.666;18.994;2024-03-08T02:18:27;179.20;2252.80
55026;DHT22;40925;45.666;18.994;2024-03-08T02:20:58;179.20;2252.80
55026;DHT22;40925;45.666;18.994;2024-03-08T02:23:24;154.50;2252.80
55026;DHT22;40925;45.666;18.994;2024-03-08T02:25:52;154.50;2252.80
55026;DHT22;40925;45.666;18.994;2024-03-08T02:28:19;154.50;2252.80
55026;DHT22;40925;45.666;18.994;2024-03-08T02:30:48;154.50;2252.80
55026;DHT22;40925;45.666;18.994;2024-03-08T02:33:18;179.20;2252.80
55026;DHT22;40925;45.666;18.994;2024-03-08T02:35:47;154.50;2252.80
55026;DHT22;40925;45.666;18.994;2024-03-08T02:38:17;154.50;2252.80
55026;DHT22;40925;45.666;18.994;2024-03-08T02:40:44;154.50;2252.80
55026;DHT22;40925;45.666;18.994;2024-03-08T02:43:11;154.50;2252.80
55026;DHT22;40925;45.666;18.994;2024-03-08T02:45:37;179.20;2252.80
55026;DHT22;40925;45.666;18.994;2024-03-08T02:48:05;154.50;2252.80
55026;DHT22;40925;45.666;18.994;2024-03-08T02:50:34;154.50;2252.80
55026;DHT22;40925;45.666;18.994;2024-03-08T02:53:03;154.50;2252.80
55026;DHT22;40925;45.666;18.994;2024-03-08T02:55:29;154.50;2252.80
55026;DHT22;40925;45.666;18.994;2024-03-08T02:57:55;154.40;2252.80
55026;DHT22;40925;45.666;18.994;2024-03-08T03:00:22;154.50;2252.80
55026;DHT22;40925;45.666;18.994;2024-03-08T03:02:50;154.40;2252.80
55026;DHT22;40925;45.666;18.994;2024-03-08T03:05:20;179.20;2252.80
55026;DHT22;40925;45.666;18.994;2024-03-08T03:07:46;179.20;2252.80
55026;DHT22;40925;45.666;18.994;2024-03-08T03:10:11;179.20;2252.80
55026;DHT22;40925;45.666;18.994;2024-03-08T03:12:45;154.50;2252.80
55026;DHT22;40925;45.666;18.994;2024-03-08T03:15:11;179.20;2252.80
55026;DHT22;40925;45.666;18.994;2024-03-08T03:17:38;179.30;2252.80
55026;DHT22;40925;45.666;18.994;2024-03-08T03:20:08;154.50;2252.80
55026;DHT22;40925;45.666;18.994;2024-03-08T03:22:38;154.50;2252.80
55026;DHT22;40925;45.666;18.994;2024-03-08T03:25:05;154.50;2252.80
55026;DHT22;40925;45.666;18.994;2024-03-08T03:27:32;154.50;2252.80
55026;DHT22;40925;45.666;18.994;2024-03-08T03:29:58;154.50;2252.80
55026;DHT22;40925;45.666;18.994;2024-03-08T03:32:23;154.50;2252.80
55026;DHT22;40925;45.666;18.994;2024-03-08T03:34:49;179.20;2252.80
55026;DHT22;40925;45.666;18.994;2024-03-08T03:37:21;179.20;2252.80
55026;DHT22;40925;45.666;18.994;2024-03-08T03:39:46;179.30;2252.80
55026;DHT22;40925;45.666;18.994;2024-03-08T03:42:18;179.20;2252.80
55026;DHT22;40925;45.666;18.994;2024-03-08T03:44:45;179.30;2252.80
55026;DHT22;40925;45.666;18.994;2024-03-08T03:47:11;179.20;2252.80
55026;DHT22;40925;45.666;18.994;2024-03-08T03:49:37;179.20;2252.80
55026;DHT22;40925;45.666;18.994;2024-03-08T03:52:02;179.30;2252.80
55026;DHT22;40925;45.666;18.994;2024-03-08T03:54:30;179.30;2252.80
55026;DHT22;40925;45.666;18.994;2024-03-08T03:56:56;179.30;2252.80
55026;DHT22;40925;45.666;18.994;2024-03-08T03:59:22;179.30;2252.80
55026;DHT22;40925;45.666;18.994;2024-03-08T04:01:51;179.30;2252.80
55026;DHT22;40925;45.666;18.994;2024-03-08T04:04:16;179.40;2252.80
55026;DHT22;40925;45.666;18.994;2024-03-08T04:06:42;179.30;2252.80
55026;DHT22;40925;45.666;18.994;2024-03-08T04:09:09;179.40;2252.80
55026;DHT22;40925;45.666;18.994;2024-03-08T04:11:36;179.40;2252.80
55026;DHT22;40925;45.666;18.994;2024-03-08T04:14:02;179.40;2252.80
55026;DHT22;40925;45.666;18.994;2024-03-08T04:16:31;179.30;2252.80
55026;DHT22;40925;45.666;18.994;2024-03-08T04:19:00;179.30;2252.80
55026;DHT22;40925;45.666;18.994;2024-03-08T04:21:32;179.30;2252.80
55026;DHT22;40925;45.666;18.994;2024-03-08T04:23:58;179.30;2252.80
55026;DHT22;40925;45.666;18.994;2024-03-08T04:26:23;179.30;2252.80
55026;DHT22;40925;45.666;18.994;2024-03-08T04:28:49;179.30;2252.80
55026;DHT22;40925;45.666;18.994;2024-03-08T04:31:15;179.30;2252.80
55026;DHT22;40925;45.666;18.994;2024-03-08T04:33:41;179.30;2252.80
55026;DHT22;40925;45.666;18.994;2024-03-08T04:36:07;179.30;2252.80
55026;DHT22;40925;45.666;18.994;2024-03-08T04:38:33;179.30;2252.80
55026;DHT22;40925;45.666;18.994;2024-03-08T04:41:00;179.30;2252.80
55026;DHT22;40925;45.666;18.994;2024-03-08T04:43:28;179.30;2252.80
55026;DHT22;40925;45.666;18.994;2024-03-08T04:45:55;179.30;2252.80
55026;DHT22;40925;45.666;18.994;2024-03-08T04:48:21;179.40;2252.80
55026;DHT22;40925;45.666;18.994;2024-03-08T04:50:47;179.40;2252.80
55026;DHT22;40925;45.666;18.994;2024-03-08T04:53:12;179.40;2252.80
55026;DHT22;40925;45.666;18.994;2024-03-08T04:55:39;179.40;2252.80
55026;DHT22;40925;45.666;18.994;2024-03-08T04:58:04;179.40;2252.80
55026;DHT22;40925;45.666;18.994;2024-03-08T05:00:33;179.30;2252.80
55026;DHT22;40925;45.666;18.994;2024-03-08T05:02:58;179.30;2252.80
55026;DHT22;40925;45.666;18.994;2024-03-08T05:05:24;179.30;2252.80
55026;DHT22;40925;45.666;18.994;2024-03-08T05:07:57;179.30;2252.80
55026;DHT22;40925;45.666;18.994;2024-03-08T05:10:23;179.30;2252.80
55026;DHT22;40925;45.666;18.994;2024-03-08T05:12:49;179.30;2252.80
55026;DHT22;40925;45.666;18.994;2024-03-08T05:15:18;179.30;2252.80
55026;DHT22;40925;45.666;18.994;2024-03-08T05:17:46;179.30;2252.80
55026;DHT22;40925;45.666;18.994;2024-03-08T05:20:11;179.40;2252.80
55026;DHT22;40925;45.666;18.994;2024-03-08T05:22:38;179.40;2252.80
55026;DHT22;40925;45.666;18.994;2024-03-08T05:25:06;179.30;2252.80
55026;DHT22;40925;45.666;18.994;2024-03-08T05:27:35;179.40;2252.80
55026;DHT22;40925;45.666;18.994;2024-03-08T05:30:02;179.30;2252.80
55026;DHT22;40925;45.666;18.994;2024-03-08T05:32:29;179.30;2252.80
55026;DHT22;40925;45.666;18.994;2024-03-08T05:34:55;179.30;2252.80
55026;DHT22;40925;45.666;18.994;2024-03-08T05:37:21;179.20;2252.80
55026;DHT22;40925;45.666;18.994;2024-03-08T05:39:48;179.30;2252.80
55026;DHT22;40925;45.666;18.994;2024-03-08T05:42:14;179.20;2252.80
55026;DHT22;40925;45.666;18.994;2024-03-08T05:44:39;179.20;2252.80
55026;DHT22;40925;45.666;18.994;2024-03-08T05:47:06;154.40;2252.80
55026;DHT22;40925;45.666;18.994;2024-03-08T05:49:32;154.30;2252.80
55026;DHT22;40925;45.666;18.994;2024-03-08T05:51:59;154.30;2252.80
55026;DHT22;40925;45.666;18.994;2024-03-08T05:54:25;154.20;2252.80
55026;DHT22;40925;45.666;18.994;2024-03-08T05:56:53;154.30;2252.80
55026;DHT22;40925;45.666;18.994;2024-03-08T05:59:19;154.20;2252.80
55026;DHT22;40925;45.666;18.994;2024-03-08T06:01:45;154.20;2252.80
55026;DHT22;40925;45.666;18.994;2024-03-08T06:04:15;154.20;2252.80
55026;DHT22;40925;45.666;18.994;2024-03-08T06:06:46;154.20;2252.80
55026;DHT22;40925;45.666;18.994;2024-03-08T06:09:15;154.20;2252.80
55026;DHT22;40925;45.666;18.994;2024-03-08T06:11:48;154.10;2252.80
55026;DHT22;40925;45.666;18.994;2024-03-08T06:14:13;154.10;2252.80
55026;DHT22;40925;45.666;18.994;2024-03-08T06:16:44;154.10;2252.80
55026;DHT22;40925;45.666;18.994;2024-03-08T06:19:10;154.20;2252.80
55026;DHT22;40925;45.666;18.994;2024-03-08T06:21:36;154.20;2252.80
55026;DHT22;40925;45.666;18.994;2024-03-08T06:24:02;154.10;2252.80
55026;DHT22;40925;45.666;18.994;2024-03-08T06:26:28;154.10;2252.80
55026;DHT22;40925;45.666;18.994;2024-03-08T06:28:58;154.20;2252.80
55026;DHT22;40925;45.666;18.994;2024-03-08T06:31:24;154.40;2252.80
55026;DHT22;40925;45.666;18.994;2024-03-08T06:33:49;154.30;2252.80
55026;DHT22;40925;45.666;18.994;2024-03-08T06:36:21;154.30;2252.80
55026;DHT22;40925;45.666;18.994;2024-03-08T06:38:50;179.40;2252.80
55026;DHT22;40925;45.666;18.994;2024-03-08T06:41:16;154.40;2252.80
55026;DHT22;40925;45.666;18.994;2024-03-08T06:43:48;154.30;2252.80
55026;DHT22;40925;45.666;18.994;2024-03-08T06:46:17;154.30;2252.80
55026;DHT22;40925;45.666;18.994;2024-03-08T06:48:44;154.30;2252.80
55026;DHT22;40925;45.666;18.994;2024-03-08T06:51:14;154.40;2252.80
55026;DHT22;40925;45.666;18.994;2024-03-08T06:53:40;154.50;2252.80
55026;DHT22;40925;45.666;18.994;2024-03-08T06:56:12;179.30;2252.80
55026;DHT22;40925;45.666;18.994;2024-03-08T06:58:38;179.20;2252.80
55026;DHT22;40925;45.666;18.994;2024-03-08T07:01:03;179.20;2252.80
55026;DHT22;40925;45.666;18.994;2024-03-08T07:03:33;179.20;2252.80
55026;DHT22;40925;45.666;18.994;2024-03-08T07:05:59;154.50;2252.80
55026;DHT22;40925;45.666;18.994;2024-03-08T07:08:25;154.40;2252.80
55026;DHT22;40925;45.666;18.994;2024-03-08T07:10:53;154.50;2252.80
55026;DHT22;40925;45.666;18.994;2024-03-08T07:13:21;154.50;2252.80
55026;DHT22;40925;45.666;18.994;2024-03-08T07:15:48;179.30;2252.80
55026;DHT22;40925;45.666;18.994;2024-03-08T07:18:14;179.30;2252.80
55026;DHT22;40925;45.666;18.994;2024-03-08T07:20:41;179.40;2252.80
55026;DHT22;40925;45.666;18.994;2024-03-08T07:23:08;179.40;2252.80
55026;DHT22;40925;45.666;18.994;2024-03-08T07:25:57;179.50;2252.80
55026;DHT22;40925;45.666;18.994;2024-03-08T07:28:23;179.40;2252.80
55026;DHT22;40925;45.666;18.994;2024-03-08T07:30:49;179.30;2252.80
55026;DHT22;40925;45.666;18.994;2024-03-08T07:33:17;179.20;2252.80
55026;DHT22;40925;45.666;18.994;2024-03-08T07:35:43;179.30;2252.80
55026;DHT22;40925;45.666;18.994;2024-03-08T07:38:10;179.20;2252.80
55026;DHT22;40925;45.666;18.994;2024-03-08T07:40:39;179.20;2252.80
55026;DHT22;40925;45.666;18.994;2024-03-08T07:43:12;179.20;2252.80
55026;DHT22;40925;45.666;18.994;2024-03-08T07:45:38;154.50;2252.80
55026;DHT22;40925;45.666;18.994;2024-03-08T07:48:05;179.20;2252.80
55026;DHT22;40925;45.666;18.994;2024-03-08T07:50:37;154.50;2252.80
55026;DHT22;40925;45.666;18.994;2024-03-08T07:53:03;179.20;2252.80
55026;DHT22;40925;45.666;18.994;2024-03-08T07:55:32;179.20;2252.80
55026;DHT22;40925;45.666;18.994;2024-03-08T07:57:58;179.30;2252.80
55026;DHT22;40925;45.666;18.994;2024-03-08T08:00:24;179.30;2252.80
55026;DHT22;40925;45.666;18.994;2024-03-08T08:02:54;179.30;2252.80
55026;DHT22;40925;45.666;18.994;2024-03-08T08:05:20;179.50;2252.80
55026;DHT22;40925;45.666;18.994;2024-03-08T08:07:46;179.50;2252.80
55026;DHT22;40925;45.666;18.994;2024-03-08T08:10:16;179.60;2252.80
55026;DHT22;40925;45.666;18.994;2024-03-08T08:12:48;179.60;2252.80
55026;DHT22;40925;45.666;18.994;2024-03-08T08:15:14;179.60;2252.80
55026;DHT22;40925;45.666;18.994;2024-03-08T08:17:42;179.60;2252.80
55026;DHT22;40925;45.666;18.994;2024-03-08T08:20:09;179.60;2252.80
55026;DHT22;40925;45.666;18.994;2024-03-08T08:22:37;179.90;2252.80
55026;DHT22;40925;45.666;18.994;2024-03-08T08:25:04;179.90;2252.80
55026;DHT22;40925;45.666;18.994;2024-03-08T08:27:30;180.10;2252.80
55026;DHT22;40925;45.666;18.994;2024-03-08T08:29:56;180.00;2252.80
55026;DHT22;40925;45.666;18.994;2024-03-08T08:32:22;204.80;2252.80
55026;DHT22;40925;45.666;18.994;2024-03-08T08:34:48;204.80;2252.80
55026;DHT22;40925;45.666;18.994;2024-03-08T08:37:14;205.10;2252.80
55026;DHT22;40925;45.666;18.994;2024-03-08T08:39:42;205.10;2252.80
55026;DHT22;40925;45.666;18.994;2024-03-08T08:42:08;205.00;2201.60
55026;DHT22;40925;45.666;18.994;2024-03-08T08:44:35;204.90;2252.80
55026;DHT22;40925;45.666;18.994;2024-03-08T08:47:02;204.90;2252.80
55026;DHT22;40925;45.666;18.994;2024-03-08T08:49:29;205.00;1920.00
55026;DHT22;40925;45.666;18.994;2024-03-08T08:51:56;204.90;2252.80
55026;DHT22;40925;45.666;18.994;2024-03-08T08:54:24;205.00;2252.80
55026;DHT22;40925;45.666;18.994;2024-03-08T08:56:54;205.10;2252.80
55026;DHT22;40925;45.666;18.994;2024-03-08T08:59:20;205.10;2252.80
55026;DHT22;40925;45.666;18.994;2024-03-08T09:01:46;205.20;2252.80
55026;DHT22;40925;45.666;18.994;2024-03-08T09:24:34;205.70;2252.80
55026;DHT22;40925;45.666;18.994;2024-03-08T09:27:00;205.60;2252.80
55026;DHT22;40925;45.666;18.994;2024-03-08T09:29:26;205.60;2252.80
55026;DHT22;40925;45.666;18.994;2024-03-08T09:31:52;205.60;2252.80
55026;DHT22;40925;45.666;18.994;2024-03-08T09:34:18;205.50;2252.80
55026;DHT22;40925;45.666;18.994;2024-03-08T09:36:45;205.40;2252.80
55026;DHT22;40925;45.666;18.994;2024-03-08T09:42:33;205.50;2252.80
55026;DHT22;40925;45.666;18.994;2024-03-08T09:45:09;205.70;2252.80
55026;DHT22;40925;45.666;18.994;2024-03-08T09:47:42;205.50;2252.80
55026;DHT22;40925;45.666;18.994;2024-03-08T09:50:09;205.40;2252.80
55026;DHT22;40925;45.666;18.994;2024-03-08T09:52:48;205.60;2252.80
55026;DHT22;40925;45.666;18.994;2024-03-08T09:55:14;205.40;2252.80
55026;DHT22;40925;45.666;18.994;2024-03-08T09:57:43;205.30;2252.80
55026;DHT22;40925;45.666;18.994;2024-03-08T10:00:35;205.20;2252.80
55026;DHT22;40925;45.666;18.994;2024-03-08T10:03:03;205.30;2252.80
55026;DHT22;40925;45.666;18.994;2024-03-08T10:05:30;205.30;2252.80
55026;DHT22;40925;45.666;18.994;2024-03-08T10:07:58;205.40;2252.80
55026;DHT22;40925;45.666;18.994;2024-03-08T10:10:24;205.50;2252.80
55026;DHT22;40925;45.666;18.994;2024-03-08T10:12:52;205.60;2252.80
55026;DHT22;40925;45.666;18.994;2024-03-08T10:15:18;205.60;2252.80
55026;DHT22;40925;45.666;18.994;2024-03-08T10:17:45;205.60;2252.80
55026;DHT22;40925;45.666;18.994;2024-03-08T10:20:17;205.60;2252.80
55026;DHT22;40925;45.666;18.994;2024-03-08T10:29:08;205.60;2252.80
55026;DHT22;40925;45.666;18.994;2024-03-08T10:31:34;205.60;2252.80
55026;DHT22;40925;45.666;18.994;2024-03-08T10:34:01;205.60;2252.80
55026;DHT22;40925;45.666;18.994;2024-03-08T10:36:28;205.50;2252.80
55026;DHT22;40925;45.666;18.994;2024-03-08T10:38:56;205.60;2252.80
55026;DHT22;40925;45.666;18.994;2024-03-08T10:41:27;205.50;2252.80
55026;DHT22;40925;45.666;18.994;2024-03-08T10:44:17;205.60;2252.80
55026;DHT22;40925;45.666;18.994;2024-03-08T10:47:26;205.70;2252.80
55026;DHT22;40925;45.666;18.994;2024-03-08T10:49:54;205.70;2252.80
55026;DHT22;40925;45.666;18.994;2024-03-08T10:52:21;230.40;2252.80
55026;DHT22;40925;45.666;18.994;2024-03-08T10:54:52;230.90;2252.80
55026;DHT22;40925;45.666;18.994;2024-03-08T10:57:20;231.00;2252.80
55026;DHT22;40925;45.666;18.994;2024-03-08T10:59:49;230.80;2252.80
55026;DHT22;40925;45.666;18.994;2024-03-08T11:02:17;230.70;2252.80
55026;DHT22;40925;45.666;18.994;2024-03-08T11:04:47;230.60;2252.80
55026;DHT22;40925;45.666;18.994;2024-03-08T11:07:15;230.80;2252.80
55026;DHT22;40925;45.666;18.994;2024-03-08T11:09:48;230.90;2252.80
55026;DHT22;40925;45.666;18.994;2024-03-08T11:15:16;231.30;2252.80
55026;DHT22;40925;45.666;18.994;2024-03-08T11:17:49;256.40;2252.80
55026;DHT22;40925;45.666;18.994;2024-03-08T11:20:20;256.20;2252.80
55026;DHT22;40925;45.666;18.994;2024-03-08T11:22:52;256.20;2252.80
55026;DHT22;40925;45.666;18.994;2024-03-08T11:25:41;256.10;2252.80
55026;DHT22;40925;45.666;18.994;2024-03-08T11:33:35;256.60;2252.80
55026;DHT22;40925;45.666;18.994;2024-03-08T11:36:10;256.20;2252.80
55026;DHT22;40925;45.666;18.994;2024-03-08T11:42:04;256.00;2252.80
55026;DHT22;40925;45.666;18.994;2024-03-08T11:44:31;256.10;2252.80
55026;DHT22;40925;45.666;18.994;2024-03-08T11:46:57;256.10;2252.80
55026;DHT22;40925;45.666;18.994;2024-03-08T11:49:23;256.20;2252.80
55026;DHT22;40925;45.666;18.994;2024-03-08T11:51:52;256.30;2252.80
55026;DHT22;40925;45.666;18.994;2024-03-08T11:57:41;256.40;2252.80
55026;DHT22;40925;45.666;18.994;2024-03-08T12:00:15;256.30;2252.80
55026;DHT22;40925;45.666;18.994;2024-03-08T12:03:01;256.10;2252.80
55026;DHT22;40925;45.666;18.994;2024-03-08T12:05:27;256.20;2252.80
55026;DHT22;40925;45.666;18.994;2024-03-08T12:08:00;256.10;2252.80
55026;DHT22;40925;45.666;18.994;2024-03-08T12:13:48;256.00;2252.80
55026;DHT22;40925;45.666;18.994;2024-03-08T12:16:19;231.20;2252.80
55026;DHT22;40925;45.666;18.994;2024-03-08T12:34:14;256.70;2252.80
55026;DHT22;40925;45.666;18.994;2024-03-08T12:36:50;256.50;2252.80
55026;DHT22;40925;45.666;18.994;2024-03-08T12:39:18;256.50;2252.80
55026;DHT22;40925;45.666;18.994;2024-03-08T12:41:54;256.50;2252.80
55026;DHT22;40925;45.666;18.994;2024-03-08T12:44:20;256.70;2252.80
55026;DHT22;40925;45.666;18.994;2024-03-08T13:09:29;282.40;2278.40
55026;DHT22;40925;45.666;18.994;2024-03-08T13:15:19;282.40;2278.40
55026;DHT22;40925;45.666;18.994;2024-03-08T13:17:48;282.30;2278.40
55026;DHT22;40925;45.666;18.994;2024-03-08T13:20:14;282.30;2278.40
55026;DHT22;40925;45.666;18.994;2024-03-08T13:22:45;282.30;2278.40
55026;DHT22;40925;45.666;18.994;2024-03-08T13:25:12;282.10;2278.40
55026;DHT22;40925;45.666;18.994;2024-03-08T13:27:41;282.10;2278.40
55026;DHT22;40925;45.666;18.994;2024-03-08T13:30:11;282.10;2278.40
55026;DHT22;40925;45.666;18.994;2024-03-08T13:32:42;282.00;2278.40
55026;DHT22;40925;45.666;18.994;2024-03-08T13:35:11;282.00;2278.40
55026;DHT22;40925;45.666;18.994;2024-03-08T13:37:42;282.00;2278.40
55026;DHT22;40925;45.666;18.994;2024-03-08T13:40:09;282.10;2278.40
55026;DHT22;40925;45.666;18.994;2024-03-08T13:42:42;282.10;2278.40
55026;DHT22;40925;45.666;18.994;2024-03-08T13:45:09;282.00;2278.40
55026;DHT22;40925;45.666;18.994;2024-03-08T13:47:41;282.10;2278.40
55026;DHT22;40925;45.666;18.994;2024-03-08T13:50:08;282.00;2278.40
55026;DHT22;40925;45.666;18.994;2024-03-08T13:52:38;281.90;2278.40
55026;DHT22;40925;45.666;18.994;2024-03-08T13:55:05;281.80;2278.40
55026;DHT22;40925;45.666;18.994;2024-03-08T14:01:39;281.80;2278.40
55026;DHT22;40925;45.666;18.994;2024-03-08T14:04:05;281.80;2278.40
55026;DHT22;40925;45.666;18.994;2024-03-08T14:06:31;281.90;2278.40
55026;DHT22;40925;45.666;18.994;2024-03-08T14:08:57;281.80;2278.40
55026;DHT22;40925;45.666;18.994;2024-03-08T14:11:24;281.70;2278.40
55026;DHT22;40925;45.666;18.994;2024-03-08T14:13:50;281.70;2278.40
55026;DHT22;40925;45.666;18.994;2024-03-08T14:16:16;281.60;2278.40
55026;DHT22;40925;45.666;18.994;2024-03-08T14:18:42;256.80;2252.80
55026;DHT22;40925;45.666;18.994;2024-03-08T14:23:36;256.70;2252.80
55026;DHT22;40925;45.666;18.994;2024-03-08T14:26:03;256.50;2252.80
55026;DHT22;40925;45.666;18.994;2024-03-08T14:28:30;256.30;2252.80
55026;DHT22;40925;45.666;18.994;2024-03-08T14:30:57;256.30;2252.80
55026;DHT22;40925;45.666;18.994;2024-03-08T14:33:26;256.50;2252.80
55026;DHT22;40925;45.666;18.994;2024-03-08T14:35:53;256.30;2252.80
55026;DHT22;40925;45.666;18.994;2024-03-08T14:38:19;256.40;2252.80
55026;DHT22;40925;45.666;18.994;2024-03-08T14:40:46;256.40;2252.80
55026;DHT22;40925;45.666;18.994;2024-03-08T14:43:13;256.50;2252.80
55026;DHT22;40925;45.666;18.994;2024-03-08T14:45:42;256.80;2252.80
55026;DHT22;40925;45.666;18.994;2024-03-08T14:48:08;256.90;2252.80
55026;DHT22;40925;45.666;18.994;2024-03-08T14:50:37;256.90;2252.80
55026;DHT22;40925;45.666;18.994;2024-03-08T14:53:03;281.60;2278.40
55026;DHT22;40925;45.666;18.994;2024-03-08T14:55:32;281.60;2278.40
55026;DHT22;40925;45.666;18.994;2024-03-08T15:01:33;281.80;2278.40
55026;DHT22;40925;45.666;18.994;2024-03-08T15:04:04;281.80;2278.40
55026;DHT22;40925;45.666;18.994;2024-03-08T15:06:40;281.80;2278.40
55026;DHT22;40925;45.666;18.994;2024-03-08T15:09:06;281.80;2278.40
55026;DHT22;40925;45.666;18.994;2024-03-08T15:11:49;281.90;2278.40
55026;DHT22;40925;45.666;18.994;2024-03-08T15:14:15;281.90;2278.40
55026;DHT22;40925;45.666;18.994;2024-03-08T15:16:45;281.90;2278.40
55026;DHT22;40925;45.666;18.994;2024-03-08T15:19:13;281.90;2278.40
55026;DHT22;40925;45.666;18.994;2024-03-08T15:21:41;281.80;2278.40
55026;DHT22;40925;45.666;18.994;2024-03-08T15:24:09;282.10;2278.40
55026;DHT22;40925;45.666;18.994;2024-03-08T15:26:43;282.40;2278.40
55026;DHT22;40925;45.666;18.994;2024-03-08T15:29:09;282.40;2278.40
55026;DHT22;40925;45.666;18.994;2024-03-08T15:31:35;307.20;2304.00
55026;DHT22;40925;45.666;18.994;2024-03-08T15:34:03;282.50;2278.40
55026;DHT22;40925;45.666;18.994;2024-03-08T15:36:32;282.50;2278.40
55026;DHT22;40925;45.666;18.994;2024-03-08T15:38:59;282.40;2278.40
55026;DHT22;40925;45.666;18.994;2024-03-08T15:41:26;282.40;2278.40
55026;DHT22;40925;45.666;18.994;2024-03-08T15:43:52;282.40;2278.40
55026;DHT22;40925;45.666;18.994;2024-03-08T15:46:20;282.50;2278.40
55026;DHT22;40925;45.666;18.994;2024-03-08T15:48:48;282.50;2278.40
55026;DHT22;40925;45.666;18.994;2024-03-08T15:51:15;282.30;2278.40
55026;DHT22;40925;45.666;18.994;2024-03-08T15:53:43;282.10;2278.40
55026;DHT22;40925;45.666;18.994;2024-03-08T15:56:21;281.90;2278.40
55026;DHT22;40925;45.666;18.994;2024-03-08T16:02:23;281.60;2278.40
55026;DHT22;40925;45.666;18.994;2024-03-08T16:04:52;256.90;2252.80
55026;DHT22;40925;45.666;18.994;2024-03-08T16:07:18;256.70;2252.80
55026;DHT22;40925;45.666;18.994;2024-03-08T16:09:44;256.50;2252.80
55026;DHT22;40925;45.666;18.994;2024-03-08T16:12:10;256.40;2252.80
55026;DHT22;40925;45.666;18.994;2024-03-08T16:14:37;256.40;2252.80
55026;DHT22;40925;45.666;18.994;2024-03-08T16:17:04;256.30;2252.80
55026;DHT22;40925;45.666;18.994;2024-03-08T16:21:56;256.50;2252.80
55026;DHT22;40925;45.666;18.994;2024-03-08T16:24:23;256.10;2252.80
55026;DHT22;40925;45.666;18.994;2024-03-08T16:26:49;256.10;2252.80